Terminal Aerodrome Forecast
Issued by NWS

Home | Current Version | Previous Version | Text Only | Print | Product List | Glossary On
Versions: 1 2 3 4 5 6 7 8 9 10 11 12 13 14
393
FTUS43 KSGF 241135
TAFJLN
TAF
KJLN 241135Z 2412/2512 15010KT P6SM SCT035 BKN090
     FM241400 17012KT P6SM VCTS SCT025CB BKN060
      TEMPO 2415/2419 6SM -TSRA BKN025CB OVC050
     FM250000 17010KT P6SM SCT040 SCT120
     FM250600 18010KT P6SM VCSH SCT040 BKN090=

USA.gov is the U.S. government's official web portal to all federal, state and local government web resources and services.